Time;durP1;ratioP1;P1;durP2;ratioP2;P2;SDS_P1;SDS_P2;PMS_P1;PMS_P2;Temp;Humidity;BMP_temperature;BMP_pressure;BME280_temperature;BME280_humidity;BME280_pressure;Samples;Min_cycle;Max_cycle;Signal;HPM_P1;HPM_P2
2023/03/08 00:02:04;;;;;;;8.17;5.50;;;;;;;2.16;100.00;94686.69;5088478;28;20452;-75
2023/03/08 00:04:31;;;;;;;5.40;4.50;;;;;;;2.23;100.00;94687.69;5087651;28;20846;-76
2023/03/08 00:06:58;;;;;;;7.23;4.10;;;;;;;2.26;100.00;94700.09;5056978;28;20499;-75
2023/03/08 00:09:24;;;;;;;5.47;4.63;;;;;;;2.08;100.00;94675.19;5088667;28;20776;-75
2023/03/08 00:11:51;;;;;;;7.07;5.20;;;;;;;2.24;100.00;94696.28;5082032;28;20490;-75
2023/03/08 00:14:19;;;;;;;7.50;5.30;;;;;;;2.16;100.00;94686.69;5081249;28;20425;-75
2023/03/08 00:16:46;;;;;;;7.70;5.63;;;;;;;2.26;100.00;94718.34;5086181;28;20525;-75
2023/03/08 00:19:15;;;;;;;9.23;6.63;;;;;;;2.18;100.00;94707.97;5074719;28;20999;-75
2023/03/08 00:21:42;;;;;;;6.37;4.37;;;;;;;2.10;100.00;94701.72;5064633;28;20488;-75
2023/03/08 00:24:10;;;;;;;7.87;5.70;;;;;;;2.11;100.00;94708.44;5081491;28;20420;-75
2023/03/08 00:26:37;;;;;;;8.40;5.63;;;;;;;2.04;100.00;94702.97;5085096;28;20555;-75
2023/03/08 00:29:04;;;;;;;7.67;6.33;;;;;;;2.05;100.00;94717.53;5086613;28;20481;-75
2023/03/08 00:31:30;;;;;;;7.33;5.27;;;;;;;2.13;100.00;94740.16;5083138;28;20459;-75
2023/03/08 00:33:57;;;;;;;6.33;5.73;;;;;;;1.91;100.00;94702.09;5061468;28;20941;-75
2023/03/08 00:36:24;;;;;;;11.47;7.63;;;;;;;1.87;100.00;94698.56;5068032;28;20527;-75
2023/03/08 00:38:51;;;;;;;6.77;5.50;;;;;;;2.08;100.00;94740.34;5076543;28;20878;-75
2023/03/08 00:41:18;;;;;;;8.03;5.80;;;;;;;1.92;100.00;94714.03;5073131;28;20476;-75
2023/03/08 00:43:45;;;;;;;11.10;5.43;;;;;;;2.15;100.00;94729.47;5076546;28;20472;-75
2023/03/08 00:46:12;;;;;;;7.10;4.13;;;;;;;2.16;100.00;94739.56;5056395;28;20528;-75
2023/03/08 00:48:40;;;;;;;5.47;4.13;;;;;;;2.21;100.00;94747.22;5086548;28;20465;-75
2023/03/08 00:51:07;;;;;;;7.10;4.23;;;;;;;2.24;100.00;94745.81;5082731;28;20435;-75
2023/03/08 00:53:34;;;;;;;4.97;4.57;;;;;;;2.10;100.00;94725.16;5079425;28;20486;-75
2023/03/08 00:56:01;;;;;;;5.30;4.87;;;;;;;2.14;100.00;94723.47;5066388;28;20436;-76
2023/03/08 00:58:30;;;;;;;13.47;6.67;;;;;;;2.25;100.00;94750.72;5086395;28;20937;-76
2023/03/08 01:00:58;;;;;;;15.73;6.67;;;;;;;2.01;100.00;94729.66;5062452;28;20953;-76
2023/03/08 01:03:25;;;;;;;7.27;5.30;;;;;;;2.25;100.00;94745.50;5071060;28;20472;-76
2023/03/08 01:05:55;;;;;;;7.80;6.30;;;;;;;2.20;100.00;94747.53;5056207;28;20527;-75
2023/03/08 01:08:24;;;;;;;7.37;5.87;;;;;;;2.24;100.00;94758.84;5055827;28;20503;-75
2023/03/08 01:10:57;;;;;;;7.13;4.50;;;;;;;2.24;100.00;94753.63;5072464;28;20494;-75
2023/03/08 01:13:26;;;;;;;6.83;4.70;;;;;;;1.99;100.00;94716.16;5072272;28;20452;-75
2023/03/08 01:15:53;;;;;;;5.37;4.87;;;;;;;2.22;100.00;94761.78;5072476;28;20544;-75
2023/03/08 01:18:20;;;;;;;6.10;5.37;;;;;;;1.79;100.00;94691.53;5072332;28;20443;-75
2023/03/08 01:21:03;;;;;;;14.60;5.97;;;;;;;2.21;100.00;94751.66;5072131;28;20535;-75
2023/03/08 01:23:31;;;;;;;7.40;5.13;;;;;;;2.17;100.00;94755.97;5072209;28;20452;-75
2023/03/08 01:26:00;;;;;;;7.20;5.63;;;;;;;2.19;100.00;94753.81;5072103;28;20964;-75
2023/03/08 01:28:28;;;;;;;6.50;5.80;;;;;;;2.00;100.00;94722.88;5072134;28;20549;-75
2023/03/08 01:31:00;;;;;;;6.90;5.70;;;;;;;2.17;100.00;94737.72;5072211;28;20452;-75
2023/03/08 01:33:27;;;;;;;8.00;4.20;;;;;;;2.15;100.00;94735.44;5072085;28;20901;-75
2023/03/08 01:35:53;;;;;;;6.93;5.50;;;;;;;2.03;100.00;94724.88;5073185;28;20835;-75
2023/03/08 01:38:20;;;;;;;8.50;5.73;;;;;;;1.99;100.00;94723.97;5071902;28;20472;-75
2023/03/08 01:40:56;;;;;;;7.00;5.53;;;;;;;2.07;100.00;94734.38;5072623;28;20605;-75
2023/03/08 01:43:28;;;;;;;5.87;5.37;;;;;;;2.13;100.00;94740.16;5055357;28;20456;-75
2023/03/08 01:46:14;;;;;;;7.30;5.00;;;;;;;2.13;100.00;94737.56;5061090;28;20427;-75
2023/03/08 01:49:04;;;;;;;9.53;5.80;;;;;;;2.13;100.00;94737.56;5074836;28;21092;-75
2023/03/08 01:51:52;;;;;;;6.23;4.00;;;;;;;2.14;100.00;94723.47;5071636;28;20514;-75
2023/03/08 01:54:21;;;;;;;8.60;4.30;;;;;;;1.94;100.00;94701.44;5071203;28;20862;-75
2023/03/08 01:56:50;;;;;;;7.97;5.13;;;;;;;2.15;100.00;94745.09;5074812;28;20940;-75
2023/03/08 01:59:19;;;;;;;10.07;7.10;;;;;;;1.87;100.00;94703.78;5055056;28;20440;-75
2023/03/08 02:01:46;;;;;;;6.37;4.90;;;;;;;2.07;100.00;94726.56;5075863;28;20880;-75
2023/03/08 02:04:13;;;;;;;5.00;3.93;;;;;;;2.11;100.00;94728.53;5091669;28;20443;-75
2023/03/08 02:06:42;;;;;;;9.23;4.90;;;;;;;1.96;100.00;94712.31;5074816;28;20435;-75
2023/03/08 02:09:10;;;;;;;8.50;4.97;;;;;;;2.09;100.00;94726.25;5074866;28;20431;-75
2023/03/08 02:11:40;;;;;;;7.80;4.93;;;;;;;1.83;100.00;94694.28;5074592;28;20489;-75
2023/03/08 02:14:07;;;;;;;12.10;5.63;;;;;;;2.14;100.00;94744.34;5091585;28;20947;-75
2023/03/08 02:16:35;;;;;;;8.27;5.60;;;;;;;1.92;100.00;94721.84;5091391;28;20530;-75
2023/03/08 02:19:09;;;;;;;10.40;6.50;;;;;;;1.83;100.00;94700.25;5091459;28;20431;-75
2023/03/08 02:21:36;;;;;;;7.03;5.13;;;;;;;1.95;100.00;94707.44;5091596;28;20542;-75
2023/03/08 02:24:17;;;;;;;8.80;5.73;;;;;;;2.17;100.00;94737.72;5060939;28;20428;-76
2023/03/08 02:26:45;;;;;;;6.23;4.83;;;;;;;2.19;100.00;94746.75;5062031;28;20524;-75
2023/03/08 02:29:12;;;;;;;7.87;5.77;;;;;;;2.16;100.00;94731.75;5084406;28;20427;-76
2023/03/08 02:31:39;;;;;;;7.10;5.07;;;;;;;1.99;100.00;94711.69;5081745;28;20443;-76
2023/03/08 02:34:07;;;;;;;11.50;6.40;;;;;;;2.16;100.00;94720.56;5088057;28;20871;-76
2023/03/08 02:36:34;;;;;;;10.33;5.57;;;;;;;1.92;100.00;94700.25;5064375;28;20443;-76
2023/03/08 02:39:01;;;;;;;10.13;6.90;;;;;;;2.15;100.00;94725.00;5064502;28;20936;-76
2023/03/08 02:41:27;;;;;;;4.70;3.50;;;;;;;2.00;100.00;94708.03;5072979;28;20434;-77
2023/03/08 02:43:54;;;;;;;7.90;6.90;;;;;;;2.14;100.00;94718.28;5093372;28;20526;-75
2023/03/08 02:46:21;;;;;;;13.23;5.93;;;;;;;0.73;100.00;94516.13;5074235;28;20451;-75
2023/03/08 02:48:48;;;;;;;7.40;5.37;;;;;;;2.16;100.00;94712.75;5073193;28;20460;-75
2023/03/08 02:51:15;;;;;;;8.47;7.10;;;;;;;1.91;100.00;94683.84;5053589;28;20535;-75
2023/03/08 02:53:42;;;;;;;7.37;4.47;;;;;;;2.16;100.00;94723.16;5070210;28;20525;-75
2023/03/08 02:56:09;;;;;;;5.97;4.23;;;;;;;1.80;100.00;94661.03;5070635;28;20438;-75
2023/03/08 02:58:35;;;;;;;7.57;5.60;;;;;;;2.06;100.00;94717.22;5070629;28;20948;-75
2023/03/08 03:01:02;;;;;;;9.80;6.83;;;;;;;2.05;100.00;94714.91;5070577;28;20456;-75
2023/03/08 03:03:30;;;;;;;7.53;5.40;;;;;;;2.03;100.00;94715.22;5074541;28;21013;-75
2023/03/08 03:05:56;;;;;;;3.67;3.30;;;;;;;1.84;100.00;94690.59;5090712;28;20443;-75
2023/03/08 03:08:30;;;;;;;6.63;5.93;;;;;;;1.98;100.00;94712.78;5074585;28;20475;-75
2023/03/08 03:10:56;;;;;;;5.70;5.10;;;;;;;1.78;100.00;94682.94;5073909;28;20518;-75
2023/03/08 03:13:23;;;;;;;9.67;6.07;;;;;;;1.76;100.00;94684.34;5090419;28;20490;-75
2023/03/08 03:15:50;;;;;;;7.67;5.83;;;;;;;1.70;100.00;94691.53;5073976;28;20435;-75
2023/03/08 03:18:17;;;;;;;13.10;6.63;;;;;;;1.57;100.00;94681.31;5064671;28;20913;-75
2023/03/08 03:20:44;;;;;;;5.73;3.87;;;;;;;1.59;100.00;94686.97;5070519;28;20485;-75
2023/03/08 03:23:10;;;;;;;7.57;5.90;;;;;;;1.52;100.00;94684.06;5070236;28;20559;-75
2023/03/08 03:25:46;;;;;;;6.10;5.13;;;;;;;1.65;100.00;94706.56;5084287;28;20451;-75
2023/03/08 03:28:16;;;;;;;9.30;6.13;;;;;;;1.71;100.00;94720.97;5090471;28;20990;-75
2023/03/08 03:30:43;;;;;;;11.97;6.23;;;;;;;1.57;100.00;94697.69;5072829;28;20469;-75
2023/03/08 03:33:12;;;;;;;7.80;5.97;;;;;;;1.80;100.00;94729.53;5070753;28;20859;-75
2023/03/08 03:35:38;;;;;;;12.87;6.87;;;;;;;1.81;100.00;94728.47;5053484;28;20578;-75
2023/03/08 03:38:07;;;;;;;9.80;6.20;;;;;;;1.74;100.00;94707.34;5070199;28;20802;-75
2023/03/08 03:40:34;;;;;;;9.13;6.00;;;;;;;1.82;100.00;94719.56;5070162;28;20804;-75
2023/03/08 03:43:02;;;;;;;8.47;5.93;;;;;;;1.77;100.00;94707.47;5070088;28;20456;-75
2023/03/08 03:45:29;;;;;;;8.93;6.50;;;;;;;1.91;100.00;94727.38;5073355;28;20928;-75
2023/03/08 03:47:56;;;;;;;7.70;5.50;;;;;;;1.83;100.00;94715.13;5063036;28;20464;-75
2023/03/08 03:50:24;;;;;;;8.07;5.93;;;;;;;1.75;100.00;94693.25;5070110;28;20965;-74
2023/03/08 03:52:56;;;;;;;11.43;7.20;;;;;;;1.81;100.00;94706.84;5070063;28;20880;-74
2023/03/08 03:55:23;;;;;;;8.97;5.00;;;;;;;1.88;100.00;94707.91;5070003;28;20816;-74
2023/03/08 03:57:50;;;;;;;10.60;6.90;;;;;;;1.83;100.00;94696.88;5070173;28;20447;-75
2023/03/08 04:00:17;;;;;;;8.13;6.23;;;;;;;2.01;100.00;94727.03;5069927;28;20479;-75
2023/03/08 04:02:52;;;;;;;11.47;6.17;;;;;;;1.49;100.00;94630.78;5054851;28;20543;-75
2023/03/08 04:05:20;;;;;;;8.10;5.80;;;;;;;1.82;100.00;94679.72;5073733;28;20444;-75
2023/03/08 04:07:50;;;;;;;9.13;5.43;;;;;;;1.84;100.00;94696.56;5073799;28;20472;-75
2023/03/08 04:10:18;;;;;;;11.93;7.30;;;;;;;1.84;100.00;94693.97;5081457;28;20443;-75
2023/03/08 04:12:49;;;;;;;7.57;5.93;;;;;;;1.88;100.00;94691.53;5093712;28;20451;-74
2023/03/08 04:15:17;;;;;;;10.60;6.50;;;;;;;1.82;100.00;94690.91;5095131;28;20837;-74
2023/03/08 04:17:44;;;;;;;7.67;6.17;;;;;;;1.71;100.00;94676.69;5078113;28;20459;-74
2023/03/08 04:20:13;;;;;;;11.93;6.47;;;;;;;1.75;100.00;94677.59;5082502;28;20954;-75
2023/03/08 04:22:45;;;;;;;11.33;6.60;;;;;;;1.70;100.00;94690.78;5093591;28;20455;-75
2023/03/08 04:25:17;;;;;;;6.40;5.77;;;;;;;1.72;100.00;94699.03;5093634;28;20531;-75
2023/03/08 04:27:51;;;;;;;7.20;5.00;;;;;;;1.54;100.00;94674.13;5093422;28;20455;-75
2023/03/08 04:30:19;;;;;;;7.23;5.20;;;;;;;1.72;100.00;94696.44;5093586;28;20446;-75
2023/03/08 04:32:46;;;;;;;10.33;6.57;;;;;;;1.78;100.00;94719.44;5093363;28;20455;-75
2023/03/08 04:35:13;;;;;;;7.70;5.90;;;;;;;1.76;100.00;94720.81;5093292;28;20465;-75
2023/03/08 04:37:44;;;;;;;7.27;6.00;;;;;;;1.75;100.00;94720.06;5093279;28;20448;-75
2023/03/08 04:40:12;;;;;;;7.80;5.83;;;;;;;1.54;100.00;94684.53;5067954;28;20431;-75
2023/03/08 04:42:51;;;;;;;9.20;6.23;;;;;;;1.53;100.00;94690.81;5073020;28;20456;-75
2023/03/08 04:45:24;;;;;;;7.77;6.10;;;;;;;1.56;100.00;94708.41;5075477;28;20454;-75
2023/03/08 04:47:53;;;;;;;8.57;5.80;;;;;;;1.66;100.00;94718.53;5083081;28;20462;-74
2023/03/08 04:50:19;;;;;;;8.77;6.00;;;;;;;1.63;100.00;94708.72;5056230;28;20432;-74
2023/03/08 04:52:47;;;;;;;7.63;5.80;;;;;;;1.67;100.00;94715.59;5072778;28;20460;-75
2023/03/08 04:55:14;;;;;;;7.40;5.90;;;;;;;1.34;100.00;94680.75;5072739;28;20851;-75
2023/03/08 04:57:40;;;;;;;7.90;5.43;;;;;;;1.52;100.00;94716.09;5072715;28;20531;-75
2023/03/08 05:00:09;;;;;;;8.87;5.67;;;;;;;1.41;100.00;94712.25;5072662;28;20472;-75
2023/03/08 05:02:37;;;;;;;12.40;8.63;;;;;;;1.52;100.00;94729.09;5072652;28;20460;-75
2023/03/08 05:05:10;;;;;;;8.20;5.60;;;;;;;1.35;100.00;94692.69;5072601;28;20913;-75
2023/03/08 05:07:37;;;;;;;13.57;6.80;;;;;;;1.34;100.00;94673.69;5055955;28;20808;-75
2023/03/08 05:10:04;;;;;;;8.60;4.90;;;;;;;1.45;100.00;94687.13;5072511;28;20429;-75
2023/03/08 05:12:30;;;;;;;11.27;6.97;;;;;;;1.19;100.00;94654.09;5072507;28;20527;-75
2023/03/08 05:14:59;;;;;;;9.00;6.37;;;;;;;1.43;100.00;94679.63;5077317;28;20508;-75
2023/03/08 05:17:26;;;;;;;8.30;5.97;;;;;;;1.31;100.00;94665.72;5076000;28;20467;-75
2023/03/08 05:19:53;;;;;;;8.00;6.70;;;;;;;1.45;100.00;94684.53;5075931;28;20455;-75
2023/03/08 05:22:25;;;;;;;7.57;5.63;;;;;;;1.24;100.00;94649.81;5092510;28;20459;-75
2023/03/08 05:24:55;;;;;;;6.73;5.50;;;;;;;1.19;100.00;94638.47;5092480;28;20475;-75
2023/03/08 05:27:22;;;;;;;9.80;6.07;;;;;;;1.34;100.00;94647.66;5092360;28;20935;-75
2023/03/08 05:29:51;;;;;;;6.13;5.10;;;;;;;1.37;100.00;94647.03;5092362;28;20467;-75
2023/03/08 05:32:17;;;;;;;6.70;5.67;;;;;;;1.19;100.00;94633.25;5060845;28;20480;-75
2023/03/08 05:34:44;;;;;;;11.17;6.43;;;;;;;1.37;100.00;94665.25;5055454;28;20456;-75
2023/03/08 05:37:17;;;;;;;16.53;9.83;;;;;;;1.35;100.00;94664.03;5087586;28;20443;-75
2023/03/08 05:39:44;;;;;;;7.93;6.60;;;;;;;1.13;100.00;94639.72;5051905;28;20489;-75
2023/03/08 05:42:15;;;;;;;11.90;7.23;;;;;;;1.28;100.00;94664.50;5071833;28;20547;-75
2023/03/08 05:44:44;;;;;;;10.20;6.73;;;;;;;1.29;100.00;94663.44;5055602;28;20537;-75
2023/03/08 05:47:14;;;;;;;9.20;6.20;;;;;;;1.28;100.00;94659.28;5064262;28;20957;-75
2023/03/08 05:49:40;;;;;;;9.33;6.77;;;;;;;1.33;100.00;94663.56;5071682;28;20542;-75
2023/03/08 05:52:08;;;;;;;7.53;6.60;;;;;;;1.15;100.00;94634.97;5055160;28;20460;-75
2023/03/08 05:54:34;;;;;;;8.80;6.50;;;;;;;1.18;100.00;94652.56;5071658;28;20444;-75
2023/03/08 05:57:07;;;;;;;5.90;5.30;;;;;;;1.15;100.00;94645.38;5071611;28;20436;-75
2023/03/08 05:59:34;;;;;;;8.60;5.87;;;;;;;1.22;100.00;94644.91;5071539;28;20494;-76
2023/03/08 06:02:02;;;;;;;9.93;7.03;;;;;;;1.43;100.00;94668.47;5071210;28;20555;-75
2023/03/08 06:04:36;;;;;;;8.50;6.67;;;;;;;1.40;100.00;94664.63;5071384;28;20830;-75
2023/03/08 06:07:03;;;;;;;7.53;6.67;;;;;;;1.40;100.00;94669.84;5062177;28;20806;-75
2023/03/08 06:09:40;;;;;;;9.37;6.40;;;;;;;1.40;100.00;94669.84;5091418;28;20466;-75
2023/03/08 06:12:11;;;;;;;10.50;6.10;;;;;;;1.15;100.00;94639.41;5075144;28;20467;-75
2023/03/08 06:14:38;;;;;;;8.17;6.67;;;;;;;1.30;100.00;94670.16;5091467;28;20488;-75
2023/03/08 06:17:05;;;;;;;7.80;6.60;;;;;;;1.33;100.00;94655.75;5092849;28;20423;-75
2023/03/08 06:19:36;;;;;;;7.57;6.87;;;;;;;1.34;100.00;94667.72;5091455;28;20949;-75
2023/03/08 06:22:03;;;;;;;7.50;6.27;;;;;;;1.28;100.00;94648.13;5080667;28;20496;-75
2023/03/08 06:24:30;;;;;;;8.27;6.63;;;;;;;1.21;100.00;94653.81;5071100;28;20540;-75
2023/03/08 06:26:59;;;;;;;9.33;6.40;;;;;;;1.22;100.00;94657.16;5070966;28;20651;-75
2023/03/08 06:29:26;;;;;;;7.33;6.60;;;;;;;1.33;100.00;94681.78;5070887;28;20468;-75
2023/03/08 06:31:53;;;;;;;9.20;6.73;;;;;;;1.48;100.00;94683.94;5070881;28;20464;-74
2023/03/08 06:34:20;;;;;;;12.50;8.50;;;;;;;1.56;100.00;94682.38;5070737;28;20455;-74
2023/03/08 06:36:50;;;;;;;12.30;9.43;;;;;;;1.44;100.00;94662.94;5070941;28;20526;-74
2023/03/08 06:39:18;;;;;;;8.90;7.83;;;;;;;1.41;100.00;94655.00;5070636;28;20450;-74
2023/03/08 06:41:44;;;;;;;9.40;7.47;;;;;;;1.46;100.00;94673.03;5054226;28;20456;-74
2023/03/08 06:44:12;;;;;;;10.50;8.10;;;;;;;1.28;100.00;94663.72;5054424;28;20535;-74
2023/03/08 06:46:39;;;;;;;11.40;7.03;;;;;;;1.34;100.00;94676.28;5083824;28;20453;-74
2023/03/08 06:49:06;;;;;;;10.43;7.00;;;;;;;1.30;100.00;94672.00;5054236;28;20468;-74
2023/03/08 06:51:34;;;;;;;8.50;6.50;;;;;;;1.37;100.00;94685.31;5070637;28;20460;-74
2023/03/08 06:54:01;;;;;;;14.20;9.00;;;;;;;1.28;100.00;94671.53;5070762;28;20992;-75
2023/03/08 06:56:29;;;;;;;10.90;8.13;;;;;;;1.50;100.00;94702.63;5068314;28;20446;-75
2023/03/08 06:58:55;;;;;;;12.53;7.90;;;;;;;1.19;100.00;94663.72;5090866;28;20522;-75
2023/03/08 07:01:22;;;;;;;9.60;6.53;;;;;;;1.34;100.00;94676.28;5090695;28;20439;-75
2023/03/08 07:03:50;;;;;;;8.57;6.73;;;;;;;1.29;100.00;94665.25;5083019;28;20424;-75
2023/03/08 07:06:17;;;;;;;6.90;6.20;;;;;;;1.43;100.00;94678.88;5084352;28;20466;-75
2023/03/08 07:08:44;;;;;;;7.90;5.70;;;;;;;1.29;100.00;94658.22;5053996;28;21117;-75
2023/03/08 07:11:10;;;;;;;7.77;6.90;;;;;;;1.34;100.00;94668.50;5070535;28;20436;-75
2023/03/08 07:13:39;;;;;;;9.20;6.60;;;;;;;1.47;100.00;94690.22;5079292;28;20459;-75
2023/03/08 07:16:11;;;;;;;9.80;8.10;;;;;;;1.40;100.00;94672.44;5088819;28;20510;-75
2023/03/08 07:18:38;;;;;;;8.97;7.10;;;;;;;1.42;100.00;94680.72;5081278;28;20412;-75
2023/03/08 07:21:06;;;;;;;12.17;7.27;;;;;;;1.41;100.00;94666.16;5087622;28;20448;-75
2023/03/08 07:23:32;;;;;;;9.37;6.63;;;;;;;1.40;100.00;94666.47;5070413;28;20456;-75
2023/03/08 07:26:03;;;;;;;8.57;6.60;;;;;;;1.51;100.00;94683.31;5084058;28;20529;-75
2023/03/08 07:28:30;;;;;;;10.23;7.97;;;;;;;1.50;100.00;94688.84;5070323;28;20492;-75
2023/03/08 07:30:56;;;;;;;11.07;7.40;;;;;;;1.42;100.00;94680.72;5070602;28;20436;-75
2023/03/08 07:33:23;;;;;;;9.63;6.53;;;;;;;1.45;100.00;94690.50;5081271;28;20451;-75
2023/03/08 07:35:50;;;;;;;7.67;6.50;;;;;;;1.37;100.00;94656.69;5090501;28;21035;-75
2023/03/08 07:38:17;;;;;;;8.77;6.80;;;;;;;1.52;100.00;94691.88;5082320;28;20941;-75
2023/03/08 07:40:44;;;;;;;8.53;6.77;;;;;;;1.18;100.00;94618.72;5072161;28;20533;-75
2023/03/08 07:43:10;;;;;;;12.30;6.70;;;;;;;1.43;100.00;94665.84;5057602;28;20460;-75
2023/03/08 07:45:52;;;;;;;8.43;6.30;;;;;;;1.47;100.00;94661.59;5081000;28;21025;-75
2023/03/08 07:48:19;;;;;;;13.03;8.30;;;;;;;1.35;100.00;94664.03;5080535;28;20523;-75
2023/03/08 07:50:45;;;;;;;10.20;7.63;;;;;;;1.45;100.00;94674.13;5057592;28;20920;-75
2023/03/08 07:53:12;;;;;;;14.60;9.70;;;;;;;1.64;100.00;94695.41;5073860;28;20448;-75
2023/03/08 07:55:39;;;;;;;12.97;8.57;;;;;;;1.63;100.00;94693.88;5064649;28;20524;-75
2023/03/08 07:58:05;;;;;;;10.30;8.13;;;;;;;1.51;100.00;94670.28;5077010;28;20438;-75
2023/03/08 08:00:32;;;;;;;19.40;10.10;;;;;;;1.44;100.00;94665.53;5057401;28;20432;-75
2023/03/08 08:02:59;;;;;;;10.87;8.27;;;;;;;1.47;100.00;94672.75;5088153;28;21082;-75
2023/03/08 08:05:25;;;;;;;11.63;8.07;;;;;;;1.41;100.00;94662.81;5086469;28;20476;-75
2023/03/08 08:07:52;;;;;;;8.13;6.23;;;;;;;1.38;100.00;94653.78;5071410;28;20439;-75
2023/03/08 08:10:19;;;;;;;9.20;6.10;;;;;;;1.53;100.00;94683.00;5086140;28;21024;-75
2023/03/08 08:12:45;;;;;;;12.80;7.40;;;;;;;1.48;100.00;94683.94;5056983;28;20464;-76
2023/03/08 08:15:12;;;;;;;7.50;6.70;;;;;;;1.32;100.00;94646.41;5081645;28;20470;-75
2023/03/08 08:17:39;;;;;;;10.67;7.87;;;;;;;1.22;100.00;94647.53;5080091;28;20419;-75
2023/03/08 08:20:09;;;;;;;10.90;7.20;;;;;;;1.43;100.00;94671.06;5086994;28;20419;-75
2023/03/08 08:22:36;;;;;;;8.00;6.20;;;;;;;1.29;100.00;94652.25;5074680;28;20483;-75
2023/03/08 08:25:07;;;;;;;11.90;8.00;;;;;;;1.25;100.00;94649.50;5073547;28;20494;-75
2023/03/08 08:27:34;;;;;;;9.77;6.97;;;;;;;1.45;100.00;94676.72;5087029;28;20419;-75
2023/03/08 08:30:03;;;;;;;6.60;6.00;;;;;;;1.37;100.00;94678.28;5073271;28;20487;-75
2023/03/08 08:32:33;;;;;;;11.03;6.63;;;;;;;1.47;100.00;94679.81;5073137;28;21126;-75
2023/03/08 08:34:59;;;;;;;14.30;7.70;;;;;;;1.19;100.00;94655.91;5073245;28;20448;-75
2023/03/08 08:37:26;;;;;;;9.83;6.97;;;;;;;1.34;100.00;94665.88;5073157;28;20437;-75
2023/03/08 08:39:53;;;;;;;7.13;6.43;;;;;;;1.10;100.00;94660.38;5073104;28;20614;-75
2023/03/08 08:42:19;;;;;;;8.23;6.90;;;;;;;0.86;100.00;94637.44;5072936;28;21062;-75
2023/03/08 08:44:46;;;;;;;10.97;8.10;;;;;;;0.91;100.00;94634.66;5074420;28;20425;-75
2023/03/08 08:47:13;;;;;;;9.63;7.93;;;;;;;1.12;100.00;94668.66;5090792;28;20518;-75
2023/03/08 08:49:40;;;;;;;12.60;6.57;;;;;;;0.96;100.00;94652.75;5092048;28;20455;-75
2023/03/08 08:52:06;;;;;;;12.93;7.83;;;;;;;0.98;100.00;94666.19;5092945;28;20455;-75
2023/03/08 08:54:33;;;;;;;14.67;6.60;;;;;;;0.94;100.00;94664.53;5094418;28;20810;-75
2023/03/08 08:57:00;;;;;;;10.90;7.43;;;;;;;0.59;100.00;94613.25;5071828;28;20436;-75
2023/03/08 08:59:27;;;;;;;10.80;7.60;;;;;;;0.70;100.00;94638.94;5072977;28;20522;-75
2023/03/08 09:01:53;;;;;;;12.37;8.30;;;;;;;0.74;100.00;94642.47;5077273;28;20443;-75
2023/03/08 09:04:20;;;;;;;9.83;6.87;;;;;;;0.49;100.00;94602.38;5092912;28;20967;-75
2023/03/08 09:06:47;;;;;;;10.10;7.40;;;;;;;0.66;100.00;94628.38;5092857;28;20443;-75
2023/03/08 09:09:15;;;;;;;10.83;7.10;;;;;;;0.57;100.00;94612.78;5076024;28;20470;-75
2023/03/08 09:11:41;;;;;;;10.77;6.73;;;;;;;0.46;100.00;94603.75;5062478;28;20516;-75
2023/03/08 09:14:20;;;;;;;11.17;8.20;;;;;;;0.52;100.00;94594.72;5092931;28;20964;-75
2023/03/08 09:16:47;;;;;;;13.30;8.50;;;;;;;0.24;100.00;94562.28;5093988;28;20430;-75
2023/03/08 09:19:14;;;;;;;9.70;7.60;;;;;;;0.33;100.00;94557.09;5078718;28;20454;-75
2023/03/08 09:21:41;;;;;;;11.17;8.23;;;;;;;0.32;100.00;94553.75;5055683;28;20884;-75
2023/03/08 09:24:09;;;;;;;15.20;7.87;;;;;;;0.33;100.00;94570.09;5072770;28;20446;-75
2023/03/08 09:26:36;;;;;;;12.40;8.50;;;;;;;0.24;100.00;94551.88;5084759;28;20433;-75
2023/03/08 09:29:06;;;;;;;10.07;7.80;;;;;;;0.38;100.00;94562.91;5073421;28;20550;-75
2023/03/08 09:31:36;;;;;;;10.73;6.97;;;;;;;0.40;100.00;94567.78;5092352;28;20459;-75
2023/03/08 09:34:07;;;;;;;10.80;6.97;;;;;;;0.29;100.00;94542.13;5092290;28;20939;-75
2023/03/08 09:36:35;;;;;;;12.50;7.90;;;;;;;0.43;100.00;94554.97;5075844;28;20878;-75
2023/03/08 09:39:03;;;;;;;8.40;6.93;;;;;;;0.44;100.00;94543.50;5074218;28;20428;-75
2023/03/08 09:41:48;;;;;;;15.07;7.10;;;;;;;0.42;100.00;94548.25;5061168;28;20437;-75
2023/03/08 09:44:42;;;;;;;12.87;8.30;;;;;;;0.45;100.00;94539.06;5060513;28;20424;-75
2023/03/08 09:47:30;;;;;;;11.90;7.80;;;;;;;0.43;100.00;94529.00;5084983;28;20912;-76
2023/03/08 09:50:18;;;;;;;10.50;8.10;;;;;;;0.23;100.00;94503.59;5052321;28;20453;-75
2023/03/08 09:53:08;;;;;;;11.20;8.13;;;;;;;0.44;100.00;94509.72;5071635;28;20505;-75
2023/03/08 09:55:42;;;;;;;9.70;8.17;;;;;;;0.38;100.00;94500.53;5058572;28;20983;-75
2023/03/08 09:58:31;;;;;;;10.43;7.87;;;;;;;0.24;100.00;94476.53;5071702;28;20428;-75
2023/03/08 10:01:12;;;;;;;10.87;7.77;;;;;;;0.45;100.00;94482.66;5084002;28;20979;-75
2023/03/08 10:03:48;;;;;;;12.40;9.93;;;;;;;0.51;100.00;94480.66;5085171;28;20432;-75
2023/03/08 10:06:31;;;;;;;12.83;8.50;;;;;;;0.48;100.00;94479.44;5054914;28;21051;-75
2023/03/08 10:09:25;;;;;;;13.30;7.40;;;;;;;0.33;100.00;94476.56;5081702;28;20831;-75
2023/03/08 10:12:23;;;;;;;14.93;9.53;;;;;;;0.30;100.00;94457.13;5042388;28;20547;-75
2023/03/08 10:14:56;;;;;;;11.53;9.13;;;;;;;0.21;100.00;94414.81;5073355;28;20492;-75
2023/03/08 10:17:27;;;;;;;11.80;9.30;;;;;;;0.44;100.00;94436.94;5074761;28;20443;-75
2023/03/08 10:20:22;;;;;;;12.53;8.80;;;;;;;0.41;100.00;94431.59;5041939;28;20446;-75
2023/03/08 10:23:01;;;;;;;12.17;8.43;;;;;;;0.47;100.00;94427.75;5077432;28;20585;-75
2023/03/08 10:25:33;;;;;;;13.30;8.97;;;;;;;0.33;100.00;94420.13;5071267;28;20789;-75
2023/03/08 10:28:03;;;;;;;12.47;8.27;;;;;;;0.39;100.00;94408.50;5071084;28;20436;-75
2023/03/08 10:30:35;;;;;;;11.80;9.23;;;;;;;0.39;100.00;94402.53;5068407;28;20550;-75
2023/03/08 10:33:06;;;;;;;15.60;10.80;;;;;;;0.22;100.00;94393.72;5066229;28;20846;-75
2023/03/08 10:35:37;;;;;;;17.17;10.87;;;;;;;0.24;100.00;94386.38;5086826;28;20447;-75
2023/03/08 10:38:15;;;;;;;12.97;9.97;;;;;;;0.02;100.00;94346.84;5089626;28;20447;-75
2023/03/08 10:40:43;;;;;;;14.90;10.33;;;;;;;0.43;100.00;94369.69;5075551;28;20829;-75
2023/03/08 10:43:27;;;;;;;17.57;10.33;;;;;;;0.41;100.00;94364.81;5091022;28;21032;-75
2023/03/08 10:46:00;;;;;;;11.93;9.80;;;;;;;0.21;100.00;94355.81;5064139;28;20825;-76
2023/03/08 10:48:26;;;;;;;13.73;9.73;;;;;;;0.20;100.00;94349.09;5093489;28;20432;-75
2023/03/08 10:50:59;;;;;;;17.10;10.73;;;;;;;0.02;100.00;94341.66;5072114;28;20494;-75
2023/03/08 10:53:28;;;;;;;17.53;11.67;;;;;;;-0.02;100.00;94344.84;5070790;28;20974;-76
2023/03/08 10:55:57;;;;;;;16.50;12.40;;;;;;;0.06;100.00;94324.38;5070716;28;20527;-76
2023/03/08 10:58:36;;;;;;;14.57;11.23;;;;;;;0.04;100.00;94337.66;5071892;28;20412;-76
2023/03/08 11:01:23;;;;;;;18.87;11.27;;;;;;;0.03;100.00;94335.38;5070667;28;20428;-76
2023/03/08 11:04:02;;;;;;;13.67;10.53;;;;;;;-0.03;100.00;94304.34;5058199;28;20420;-76
2023/03/08 11:06:29;;;;;;;18.13;12.80;;;;;;;0.21;100.00;94342.06;5070622;28;20475;-77
2023/03/08 11:08:59;;;;;;;15.70;11.63;;;;;;;0.27;100.00;94346.03;5070619;28;20940;-76
2023/03/08 11:11:26;;;;;;;14.83;10.77;;;;;;;0.10;100.00;94309.69;5070454;28;20791;-76
2023/03/08 11:13:53;;;;;;;16.70;12.17;;;;;;;0.34;100.00;94345.53;5069809;28;20924;-76
2023/03/08 11:16:28;;;;;;;15.50;11.07;;;;;;;0.26;100.00;94345.25;5070409;28;20789;-76
2023/03/08 11:19:18;;;;;;;14.03;10.37;;;;;;;0.36;100.00;94346.75;5082331;28;20463;-75
2023/03/08 11:22:03;;;;;;;16.37;10.83;;;;;;;0.35;100.00;94331.47;5075405;28;20444;-75
2023/03/08 11:24:51;;;;;;;15.57;11.13;;;;;;;0.40;100.00;94337.28;5074555;28;21007;-76
2023/03/08 11:27:30;;;;;;;17.33;10.87;;;;;;;0.18;100.00;94320.06;5090654;28;20430;-76
2023/03/08 11:30:15;;;;;;;16.60;12.57;;;;;;;0.27;100.00;94344.19;5082895;28;20535;-76
2023/03/08 11:32:44;;;;;;;18.83;11.83;;;;;;;0.23;100.00;94337.31;5088873;28;20486;-76
2023/03/08 11:35:44;;;;;;;15.83;10.97;;;;;;;0.31;100.00;94338.38;5090326;28;20963;-75
2023/03/08 11:38:27;;;;;;;14.13;10.90;;;;;;;0.26;100.00;94334.09;5018632;28;20479;-76
2023/03/08 11:41:09;;;;;;;13.23;11.10;;;;;;;0.31;100.00;94336.53;5070439;28;20511;-76
2023/03/08 11:43:46;;;;;;;15.20;12.10;;;;;;;0.35;100.00;94329.63;5085028;28;20483;-76